sensor_id;sensor_type;location;lat;lon;timestamp;temperature;humidity
68485;DHT22;55472;50.060;21.960;2022-11-28T00:01:03;1.30;99.40
68485;DHT22;55472;50.060;21.960;2022-11-28T00:03:30;1.30;99.50
68485;DHT22;55472;50.060;21.960;2022-11-28T00:05:56;1.30;99.50
68485;DHT22;55472;50.060;21.960;2022-11-28T00:08:28;1.30;99.60
68485;DHT22;55472;50.060;21.960;2022-11-28T00:10:54;1.30;99.60
68485;DHT22;55472;50.060;21.960;2022-11-28T00:13:20;1.30;99.60
68485;DHT22;55472;50.060;21.960;2022-11-28T00:15:55;1.30;99.60
68485;DHT22;55472;50.060;21.960;2022-11-28T00:18:22;1.30;99.60
68485;DHT22;55472;50.060;21.960;2022-11-28T00:20:47;1.30;99.50
68485;DHT22;55472;50.060;21.960;2022-11-28T00:23:14;1.30;99.40
68485;DHT22;55472;50.060;21.960;2022-11-28T00:25:39;1.30;99.50
68485;DHT22;55472;50.060;21.960;2022-11-28T00:28:06;1.30;99.50
68485;DHT22;55472;50.060;21.960;2022-11-28T00:30:35;1.30;99.50
68485;DHT22;55472;50.060;21.960;2022-11-28T00:33:03;1.30;99.50
68485;DHT22;55472;50.060;21.960;2022-11-28T00:35:29;1.30;99.20
68485;DHT22;55472;50.060;21.960;2022-11-28T00:37:55;1.20;99.20
68485;DHT22;55472;50.060;21.960;2022-11-28T00:40:22;1.20;99.20
68485;DHT22;55472;50.060;21.960;2022-11-28T00:42:48;1.20;99.30
68485;DHT22;55472;50.060;21.960;2022-11-28T00:45:14;1.20;99.50
68485;DHT22;55472;50.060;21.960;2022-11-28T00:47:40;1.20;99.50
68485;DHT22;55472;50.060;21.960;2022-11-28T00:50:06;1.20;99.50
68485;DHT22;55472;50.060;21.960;2022-11-28T00:52:32;1.20;99.70
68485;DHT22;55472;50.060;21.960;2022-11-28T00:54:58;1.20;99.50
68485;DHT22;55472;50.060;21.960;2022-11-28T00:57:24;1.20;99.60
68485;DHT22;55472;50.060;21.960;2022-11-28T00:59:50;1.20;99.80
68485;DHT22;55472;50.060;21.960;2022-11-28T01:02:16;1.20;99.90
68485;DHT22;55472;50.060;21.960;2022-11-28T01:04:42;1.20;99.90
68485;DHT22;55472;50.060;21.960;2022-11-28T01:07:08;1.20;99.80
68485;DHT22;55472;50.060;21.960;2022-11-28T01:09:34;1.20;99.80
68485;DHT22;55472;50.060;21.960;2022-11-28T01:12:00;1.20;99.80
68485;DHT22;55472;50.060;21.960;2022-11-28T01:14:26;1.20;99.90
68485;DHT22;55472;50.060;21.960;2022-11-28T01:16:53;1.20;99.90
68485;DHT22;55472;50.060;21.960;2022-11-28T01:19:19;1.20;99.90
68485;DHT22;55472;50.060;21.960;2022-11-28T01:21:46;1.20;99.90
68485;DHT22;55472;50.060;21.960;2022-11-28T01:24:12;1.20;99.90
68485;DHT22;55472;50.060;21.960;2022-11-28T01:26:39;1.20;99.90
68485;DHT22;55472;50.060;21.960;2022-11-28T01:29:07;1.10;99.90
68485;DHT22;55472;50.060;21.960;2022-11-28T01:31:33;1.20;99.90
68485;DHT22;55472;50.060;21.960;2022-11-28T01:33:59;1.20;99.90
68485;DHT22;55472;50.060;21.960;2022-11-28T01:36:26;1.20;99.90
68485;DHT22;55472;50.060;21.960;2022-11-28T01:38:52;1.10;99.90
68485;DHT22;55472;50.060;21.960;2022-11-28T01:41:23;1.10;99.80
68485;DHT22;55472;50.060;21.960;2022-11-28T01:46:38;1.10;99.80
68485;DHT22;55472;50.060;21.960;2022-11-28T01:49:40;1.10;99.80
68485;DHT22;55472;50.060;21.960;2022-11-28T01:52:08;1.10;99.90
68485;DHT22;55472;50.060;21.960;2022-11-28T01:54:39;1.10;99.90
68485;DHT22;55472;50.060;21.960;2022-11-28T01:57:10;1.10;99.90
68485;DHT22;55472;50.060;21.960;2022-11-28T01:59:42;1.10;99.90
68485;DHT22;55472;50.060;21.960;2022-11-28T02:02:18;1.10;99.90
68485;DHT22;55472;50.060;21.960;2022-11-28T02:05:16;1.10;99.90
68485;DHT22;55472;50.060;21.960;2022-11-28T02:07:43;1.10;99.90
68485;DHT22;55472;50.060;21.960;2022-11-28T02:10:12;1.10;99.90
68485;DHT22;55472;50.060;21.960;2022-11-28T02:30:51;1.10;99.90
68485;DHT22;55472;50.060;21.960;2022-11-28T02:33:18;1.00;99.90
68485;DHT22;55472;50.060;21.960;2022-11-28T02:42:13;1.00;99.90
68485;DHT22;55472;50.060;21.960;2022-11-28T02:44:57;1.00;99.90
68485;DHT22;55472;50.060;21.960;2022-11-28T02:47:34;1.00;99.90
68485;DHT22;55472;50.060;21.960;2022-11-28T02:50:12;1.00;99.90
68485;DHT22;55472;50.060;21.960;2022-11-28T02:52:45;1.00;99.90
68485;DHT22;55472;50.060;21.960;2022-11-28T02:55:15;1.00;99.90
68485;DHT22;55472;50.060;21.960;2022-11-28T02:57:46;0.90;99.90
68485;DHT22;55472;50.060;21.960;2022-11-28T03:00:37;0.90;99.90
68485;DHT22;55472;50.060;21.960;2022-11-28T03:09:25;0.80;99.90
68485;DHT22;55472;50.060;21.960;2022-11-28T03:12:23;0.80;99.90
68485;DHT22;55472;50.060;21.960;2022-11-28T03:14:59;0.80;99.90
68485;DHT22;55472;50.060;21.960;2022-11-28T03:20:42;0.70;99.90
68485;DHT22;55472;50.060;21.960;2022-11-28T03:26:10;0.70;99.90
68485;DHT22;55472;50.060;21.960;2022-11-28T03:28:44;0.70;99.90
68485;DHT22;55472;50.060;21.960;2022-11-28T03:31:20;0.80;99.90
68485;DHT22;55472;50.060;21.960;2022-11-28T03:33:54;0.80;99.90
68485;DHT22;55472;50.060;21.960;2022-11-28T03:36:33;0.80;99.90
68485;DHT22;55472;50.060;21.960;2022-11-28T03:39:13;0.80;99.90
68485;DHT22;55472;50.060;21.960;2022-11-28T03:41:47;0.80;99.90
68485;DHT22;55472;50.060;21.960;2022-11-28T03:44:27;0.70;99.90
68485;DHT22;55472;50.060;21.960;2022-11-28T03:46:57;0.80;99.90
68485;DHT22;55472;50.060;21.960;2022-11-28T03:49:46;0.80;99.90
68485;DHT22;55472;50.060;21.960;2022-11-28T03:52:39;0.70;99.90
68485;DHT22;55472;50.060;21.960;2022-11-28T03:55:17;0.70;99.90
68485;DHT22;55472;50.060;21.960;2022-11-28T03:58:03;0.80;99.90
68485;DHT22;55472;50.060;21.960;2022-11-28T04:00:37;0.80;99.90
68485;DHT22;55472;50.060;21.960;2022-11-28T04:08:31;0.80;99.90
68485;DHT22;55472;50.060;21.960;2022-11-28T04:11:13;0.80;99.90
68485;DHT22;55472;50.060;21.960;2022-11-28T04:13:51;0.80;99.90
68485;DHT22;55472;50.060;21.960;2022-11-28T04:16:20;0.80;99.90
68485;DHT22;55472;50.060;21.960;2022-11-28T04:19:09;0.80;99.80
68485;DHT22;55472;50.060;21.960;2022-11-28T04:21:49;0.80;99.70
68485;DHT22;55472;50.060;21.960;2022-11-28T04:24:24;0.80;99.60
68485;DHT22;55472;50.060;21.960;2022-11-28T04:27:07;0.80;99.70
68485;DHT22;55472;50.060;21.960;2022-11-28T04:29:40;0.80;99.60
68485;DHT22;55472;50.060;21.960;2022-11-28T04:32:11;0.80;99.60
68485;DHT22;55472;50.060;21.960;2022-11-28T04:34:42;0.80;99.40
68485;DHT22;55472;50.060;21.960;2022-11-28T04:37:11;0.80;99.20
68485;DHT22;55472;50.060;21.960;2022-11-28T04:39:42;0.80;99.20
68485;DHT22;55472;50.060;21.960;2022-11-28T04:42:14;0.90;99.00
68485;DHT22;55472;50.060;21.960;2022-11-28T04:44:48;0.80;98.90
68485;DHT22;55472;50.060;21.960;2022-11-28T04:47:17;0.90;99.10
68485;DHT22;55472;50.060;21.960;2022-11-28T04:49:44;0.90;99.00
68485;DHT22;55472;50.060;21.960;2022-11-28T04:55:40;0.90;99.20
68485;DHT22;55472;50.060;21.960;2022-11-28T04:58:25;0.90;99.30
68485;DHT22;55472;50.060;21.960;2022-11-28T05:01:08;0.90;99.30
68485;DHT22;55472;50.060;21.960;2022-11-28T05:03:35;0.90;99.40
68485;DHT22;55472;50.060;21.960;2022-11-28T05:06:01;0.90;99.30
68485;DHT22;55472;50.060;21.960;2022-11-28T05:08:28;0.90;99.30
68485;DHT22;55472;50.060;21.960;2022-11-28T05:10:54;0.90;99.20
68485;DHT22;55472;50.060;21.960;2022-11-28T05:13:20;0.90;99.30
68485;DHT22;55472;50.060;21.960;2022-11-28T05:15:46;0.90;99.20
68485;DHT22;55472;50.060;21.960;2022-11-28T05:18:12;0.90;99.20
68485;DHT22;55472;50.060;21.960;2022-11-28T05:20:38;0.90;99.20
68485;DHT22;55472;50.060;21.960;2022-11-28T05:23:05;0.90;99.10
68485;DHT22;55472;50.060;21.960;2022-11-28T05:25:31;0.80;99.10
68485;DHT22;55472;50.060;21.960;2022-11-28T05:27:57;0.80;99.20
68485;DHT22;55472;50.060;21.960;2022-11-28T05:30:23;0.80;99.20
68485;DHT22;55472;50.060;21.960;2022-11-28T05:32:49;0.80;99.20
68485;DHT22;55472;50.060;21.960;2022-11-28T05:35:15;0.80;99.30
68485;DHT22;55472;50.060;21.960;2022-11-28T05:37:41;0.80;99.30
68485;DHT22;55472;50.060;21.960;2022-11-28T05:40:08;0.80;99.30
68485;DHT22;55472;50.060;21.960;2022-11-28T05:42:34;0.70;99.40
68485;DHT22;55472;50.060;21.960;2022-11-28T05:45:01;0.70;99.50
68485;DHT22;55472;50.060;21.960;2022-11-28T05:47:32;0.70;99.50
68485;DHT22;55472;50.060;21.960;2022-11-28T05:49:58;0.70;99.40
68485;DHT22;55472;50.060;21.960;2022-11-28T05:52:24;0.70;99.50
68485;DHT22;55472;50.060;21.960;2022-11-28T05:54:54;0.60;99.30
68485;DHT22;55472;50.060;21.960;2022-11-28T05:57:20;0.60;99.50
68485;DHT22;55472;50.060;21.960;2022-11-28T05:59:46;0.50;99.70
68485;DHT22;55472;50.060;21.960;2022-11-28T06:02:12;0.50;99.90
68485;DHT22;55472;50.060;21.960;2022-11-28T06:04:38;0.50;99.90
68485;DHT22;55472;50.060;21.960;2022-11-28T06:07:06;0.50;99.90
68485;DHT22;55472;50.060;21.960;2022-11-28T06:09:33;0.50;99.90
68485;DHT22;55472;50.060;21.960;2022-11-28T06:11:59;0.50;99.90
68485;DHT22;55472;50.060;21.960;2022-11-28T06:14:25;0.50;99.90
68485;DHT22;55472;50.060;21.960;2022-11-28T06:16:51;0.40;99.80
68485;DHT22;55472;50.060;21.960;2022-11-28T06:19:17;0.40;99.70
68485;DHT22;55472;50.060;21.960;2022-11-28T06:21:43;0.40;99.70
68485;DHT22;55472;50.060;21.960;2022-11-28T06:24:09;0.30;99.80
68485;DHT22;55472;50.060;21.960;2022-11-28T06:26:35;0.30;99.90
68485;DHT22;55472;50.060;21.960;2022-11-28T06:29:01;0.30;99.90
68485;DHT22;55472;50.060;21.960;2022-11-28T06:31:28;0.30;99.90
68485;DHT22;55472;50.060;21.960;2022-11-28T06:33:55;0.40;99.90
68485;DHT22;55472;50.060;21.960;2022-11-28T06:36:22;0.40;99.90
68485;DHT22;55472;50.060;21.960;2022-11-28T06:38:49;0.40;99.90
68485;DHT22;55472;50.060;21.960;2022-11-28T06:41:17;0.40;99.90
68485;DHT22;55472;50.060;21.960;2022-11-28T06:43:44;0.40;99.90
68485;DHT22;55472;50.060;21.960;2022-11-28T06:46:12;0.30;99.90
68485;DHT22;55472;50.060;21.960;2022-11-28T06:48:39;0.30;99.90
68485;DHT22;55472;50.060;21.960;2022-11-28T06:51:05;0.30;99.90
68485;DHT22;55472;50.060;21.960;2022-11-28T06:53:32;0.40;99.90
68485;DHT22;55472;50.060;21.960;2022-11-28T06:56:12;0.40;99.90
68485;DHT22;55472;50.060;21.960;2022-11-28T06:58:40;0.40;99.90
68485;DHT22;55472;50.060;21.960;2022-11-28T07:01:12;0.40;99.90
68485;DHT22;55472;50.060;21.960;2022-11-28T07:03:40;0.40;99.90
68485;DHT22;55472;50.060;21.960;2022-11-28T07:06:07;0.30;99.90
68485;DHT22;55472;50.060;21.960;2022-11-28T07:08:33;0.30;99.90
68485;DHT22;55472;50.060;21.960;2022-11-28T07:11:21;0.30;99.90
68485;DHT22;55472;50.060;21.960;2022-11-28T07:13:49;0.30;99.90
68485;DHT22;55472;50.060;21.960;2022-11-28T07:16:21;0.30;99.90
68485;DHT22;55472;50.060;21.960;2022-11-28T07:18:51;0.30;99.90
68485;DHT22;55472;50.060;21.960;2022-11-28T07:21:19;0.30;99.90
68485;DHT22;55472;50.060;21.960;2022-11-28T07:23:46;0.30;99.90
68485;DHT22;55472;50.060;21.960;2022-11-28T07:26:14;0.30;99.90
68485;DHT22;55472;50.060;21.960;2022-11-28T07:28:41;0.30;99.90
68485;DHT22;55472;50.060;21.960;2022-11-28T07:33:38;0.30;99.90
68485;DHT22;55472;50.060;21.960;2022-11-28T07:36:07;0.30;99.90
68485;DHT22;55472;50.060;21.960;2022-11-28T07:38:37;0.40;99.90
68485;DHT22;55472;50.060;21.960;2022-11-28T07:41:09;0.50;99.90
68485;DHT22;55472;50.060;21.960;2022-11-28T07:43:38;0.50;99.90
68485;DHT22;55472;50.060;21.960;2022-11-28T07:46:06;0.60;99.90
68485;DHT22;55472;50.060;21.960;2022-11-28T07:48:34;0.60;99.90
68485;DHT22;55472;50.060;21.960;2022-11-28T07:51:09;0.60;99.80
68485;DHT22;55472;50.060;21.960;2022-11-28T07:53:37;0.60;99.80
68485;DHT22;55472;50.060;21.960;2022-11-28T07:56:05;0.70;99.90
68485;DHT22;55472;50.060;21.960;2022-11-28T07:58:33;0.80;99.90
68485;DHT22;55472;50.060;21.960;2022-11-28T08:01:10;0.90;99.70
68485;DHT22;55472;50.060;21.960;2022-11-28T08:03:38;1.00;98.50
68485;DHT22;55472;50.060;21.960;2022-11-28T08:06:05;1.10;97.40
68485;DHT22;55472;50.060;21.960;2022-11-28T08:08:31;1.20;97.40
68485;DHT22;55472;50.060;21.960;2022-11-28T08:10:59;1.30;96.50
68485;DHT22;55472;50.060;21.960;2022-11-28T08:13:27;1.30;95.80
68485;DHT22;55472;50.060;21.960;2022-11-28T08:15:54;1.40;95.10
68485;DHT22;55472;50.060;21.960;2022-11-28T08:18:20;1.30;95.00
68485;DHT22;55472;50.060;21.960;2022-11-28T08:20:46;1.40;95.80
68485;DHT22;55472;50.060;21.960;2022-11-28T08:23:12;1.50;94.50
68485;DHT22;55472;50.060;21.960;2022-11-28T08:25:38;1.50;93.70
68485;DHT22;55472;50.060;21.960;2022-11-28T08:28:04;1.40;94.30
68485;DHT22;55472;50.060;21.960;2022-11-28T08:30:30;1.40;95.10
68485;DHT22;55472;50.060;21.960;2022-11-28T08:32:56;1.50;95.10
68485;DHT22;55472;50.060;21.960;2022-11-28T08:35:22;1.50;93.80
68485;DHT22;55472;50.060;21.960;2022-11-28T08:37:48;1.50;93.40
68485;DHT22;55472;50.060;21.960;2022-11-28T08:40:15;1.50;93.00
68485;DHT22;55472;50.060;21.960;2022-11-28T08:42:41;1.40;92.70
68485;DHT22;55472;50.060;21.960;2022-11-28T08:45:09;1.40;92.60
68485;DHT22;55472;50.060;21.960;2022-11-28T08:47:35;1.50;92.60
68485;DHT22;55472;50.060;21.960;2022-11-28T08:50:02;1.50;91.90
68485;DHT22;55472;50.060;21.960;2022-11-28T08:52:28;1.50;92.00
68485;DHT22;55472;50.060;21.960;2022-11-28T08:54:54;1.50;91.30
68485;DHT22;55472;50.060;21.960;2022-11-28T08:57:20;1.50;91.40
68485;DHT22;55472;50.060;21.960;2022-11-28T08:59:46;1.50;91.60
68485;DHT22;55472;50.060;21.960;2022-11-28T09:02:12;1.50;90.20
68485;DHT22;55472;50.060;21.960;2022-11-28T09:04:38;1.60;90.30
68485;DHT22;55472;50.060;21.960;2022-11-28T09:07:04;1.80;90.90
68485;DHT22;55472;50.060;21.960;2022-11-28T09:09:30;1.90;90.90
68485;DHT22;55472;50.060;21.960;2022-11-28T09:11:56;2.00;89.30
68485;DHT22;55472;50.060;21.960;2022-11-28T09:14:25;2.00;89.40
68485;DHT22;55472;50.060;21.960;2022-11-28T09:16:51;2.10;88.60
68485;DHT22;55472;50.060;21.960;2022-11-28T09:19:18;2.20;88.10
68485;DHT22;55472;50.060;21.960;2022-11-28T09:21:43;2.20;87.70
68485;DHT22;55472;50.060;21.960;2022-11-28T09:24:10;2.30;87.90
68485;DHT22;55472;50.060;21.960;2022-11-28T09:26:38;2.30;87.20
68485;DHT22;55472;50.060;21.960;2022-11-28T09:29:04;2.30;87.00
68485;DHT22;55472;50.060;21.960;2022-11-28T09:31:30;2.30;87.20
68485;DHT22;55472;50.060;21.960;2022-11-28T09:33:56;2.20;87.90
68485;DHT22;55472;50.060;21.960;2022-11-28T09:36:23;2.20;88.20
68485;DHT22;55472;50.060;21.960;2022-11-28T09:38:49;2.30;87.10
68485;DHT22;55472;50.060;21.960;2022-11-28T09:44:21;2.20;87.60
68485;DHT22;55472;50.060;21.960;2022-11-28T09:46:58;2.20;87.50
68485;DHT22;55472;50.060;21.960;2022-11-28T09:49:43;2.30;88.40
68485;DHT22;55472;50.060;21.960;2022-11-28T09:57:49;2.40;85.60
68485;DHT22;55472;50.060;21.960;2022-11-28T10:00:30;2.40;85.70
68485;DHT22;55472;50.060;21.960;2022-11-28T10:06:14;2.30;84.40
68485;DHT22;55472;50.060;21.960;2022-11-28T10:08:58;2.30;83.70
68485;DHT22;55472;50.060;21.960;2022-11-28T10:11:37;2.30;84.20
68485;DHT22;55472;50.060;21.960;2022-11-28T10:17:19;2.30;84.40
68485;DHT22;55472;50.060;21.960;2022-11-28T10:19:54;2.40;83.80
68485;DHT22;55472;50.060;21.960;2022-11-28T10:25:34;2.40;82.40
68485;DHT22;55472;50.060;21.960;2022-11-28T10:28:06;2.40;80.80
68485;DHT22;55472;50.060;21.960;2022-11-28T10:30:39;2.50;80.20
68485;DHT22;55472;50.060;21.960;2022-11-28T10:33:29;2.60;79.60
68485;DHT22;55472;50.060;21.960;2022-11-28T10:36:14;2.50;78.60
68485;DHT22;55472;50.060;21.960;2022-11-28T10:38:46;2.50;77.80
68485;DHT22;55472;50.060;21.960;2022-11-28T10:41:16;2.60;79.10
68485;DHT22;55472;50.060;21.960;2022-11-28T10:49:25;2.80;84.00
68485;DHT22;55472;50.060;21.960;2022-11-28T10:55:06;2.90;80.50
68485;DHT22;55472;50.060;21.960;2022-11-28T11:00:53;2.80;76.00
68485;DHT22;55472;50.060;21.960;2022-11-28T11:03:27;2.80;76.30
68485;DHT22;55472;50.060;21.960;2022-11-28T11:05:55;2.90;77.20
68485;DHT22;55472;50.060;21.960;2022-11-28T11:08:26;2.90;77.10
68485;DHT22;55472;50.060;21.960;2022-11-28T11:11:28;2.90;75.70
68485;DHT22;55472;50.060;21.960;2022-11-28T11:16:22;2.90;76.60
68485;DHT22;55472;50.060;21.960;2022-11-28T11:21:21;3.00;76.40
68485;DHT22;55472;50.060;21.960;2022-11-28T11:24:15;3.00;76.10
68485;DHT22;55472;50.060;21.960;2022-11-28T11:26:44;3.00;75.70
68485;DHT22;55472;50.060;21.960;2022-11-28T11:29:33;3.00;75.70
68485;DHT22;55472;50.060;21.960;2022-11-28T11:32:01;3.00;74.30
68485;DHT22;55472;50.060;21.960;2022-11-28T11:34:44;2.90;74.70
68485;DHT22;55472;50.060;21.960;2022-11-28T11:37:20;2.90;74.20
68485;DHT22;55472;50.060;21.960;2022-11-28T11:39:56;2.90;73.80
68485;DHT22;55472;50.060;21.960;2022-11-28T11:42:25;2.90;73.40
68485;DHT22;55472;50.060;21.960;2022-11-28T11:44:54;2.90;73.70
68485;DHT22;55472;50.060;21.960;2022-11-28T11:47:39;2.80;73.90
68485;DHT22;55472;50.060;21.960;2022-11-28T11:50:18;2.80;74.40
68485;DHT22;55472;50.060;21.960;2022-11-28T11:53:14;2.90;74.60
68485;DHT22;55472;50.060;21.960;2022-11-28T11:55:51;2.90;74.70
68485;DHT22;55472;50.060;21.960;2022-11-28T11:58:22;2.90;74.20
68485;DHT22;55472;50.060;21.960;2022-11-28T12:00:52;2.90;74.00
68485;DHT22;55472;50.060;21.960;2022-11-28T12:03:38;2.80;74.20
68485;DHT22;55472;50.060;21.960;2022-11-28T12:11:57;2.80;74.90
68485;DHT22;55472;50.060;21.960;2022-11-28T12:14:52;2.80;74.50
68485;DHT22;55472;50.060;21.960;2022-11-28T12:40:32;3.00;74.30
68485;DHT22;55472;50.060;21.960;2022-11-28T12:49:19;3.00;74.10
68485;DHT22;55472;50.060;21.960;2022-11-28T12:54:56;3.00;74.70
68485;DHT22;55472;50.060;21.960;2022-11-28T12:57:43;3.00;74.60
68485;DHT22;55472;50.060;21.960;2022-11-28T13:00:24;3.00;74.90
68485;DHT22;55472;50.060;21.960;2022-11-28T13:03:05;3.00;75.10
68485;DHT22;55472;50.060;21.960;2022-11-28T13:12:25;2.90;78.50
68485;DHT22;55472;50.060;21.960;2022-11-28T13:15:43;2.90;79.20
68485;DHT22;55472;50.060;21.960;2022-11-28T13:18:10;2.90;79.90
68485;DHT22;55472;50.060;21.960;2022-11-28T13:24:03;2.90;81.70
68485;DHT22;55472;50.060;21.960;2022-11-28T13:26:53;2.90;82.20
68485;DHT22;55472;50.060;21.960;2022-11-28T13:29:41;2.90;82.40
68485;DHT22;55472;50.060;21.960;2022-11-28T13:35:04;2.80;83.00
68485;DHT22;55472;50.060;21.960;2022-11-28T13:42:58;2.70;83.70
68485;DHT22;55472;50.060;21.960;2022-11-28T13:45:33;2.80;83.90
68485;DHT22;55472;50.060;21.960;2022-11-28T13:51:21;2.80;84.40
68485;DHT22;55472;50.060;21.960;2022-11-28T13:56:43;2.70;84.20
68485;DHT22;55472;50.060;21.960;2022-11-28T13:59:19;2.70;84.20
68485;DHT22;55472;50.060;21.960;2022-11-28T14:01:49;2.70;84.70
68485;DHT22;55472;50.060;21.960;2022-11-28T14:04:23;2.60;84.00
68485;DHT22;55472;50.060;21.960;2022-11-28T14:07:01;2.60;83.90
68485;DHT22;55472;50.060;21.960;2022-11-28T14:09:47;2.60;84.10
68485;DHT22;55472;50.060;21.960;2022-11-28T14:12:48;2.60;83.20
68485;DHT22;55472;50.060;21.960;2022-11-28T14:15:44;2.50;82.80
68485;DHT22;55472;50.060;21.960;2022-11-28T14:24:44;2.30;81.90
68485;DHT22;55472;50.060;21.960;2022-11-28T14:27:28;2.30;81.90
68485;DHT22;55472;50.060;21.960;2022-11-28T14:29:57;2.20;82.30
68485;DHT22;55472;50.060;21.960;2022-11-28T14:32:38;2.20;82.20
68485;DHT22;55472;50.060;21.960;2022-11-28T14:35:15;2.10;82.80
68485;DHT22;55472;50.060;21.960;2022-11-28T14:37:48;2.10;83.40
68485;DHT22;55472;50.060;21.960;2022-11-28T14:43:26;2.10;83.90
68485;DHT22;55472;50.060;21.960;2022-11-28T14:54:33;2.00;86.30
68485;DHT22;55472;50.060;21.960;2022-11-28T14:57:01;2.00;86.80
68485;DHT22;55472;50.060;21.960;2022-11-28T14:59:33;1.90;87.30
68485;DHT22;55472;50.060;21.960;2022-11-28T15:04:55;1.90;88.10
68485;DHT22;55472;50.060;21.960;2022-11-28T15:07:55;1.90;88.30
68485;DHT22;55472;50.060;21.960;2022-11-28T15:16:15;1.80;89.30
68485;DHT22;55472;50.060;21.960;2022-11-28T15:18:49;1.80;89.40
68485;DHT22;55472;50.060;21.960;2022-11-28T15:21:19;1.80;89.60
68485;DHT22;55472;50.060;21.960;2022-11-28T15:23:46;1.80;90.00
68485;DHT22;55472;50.060;21.960;2022-11-28T15:26:20;1.80;90.20
68485;DHT22;55472;50.060;21.960;2022-11-28T15:29:27;1.80;90.40
68485;DHT22;55472;50.060;21.960;2022-11-28T15:31:55;1.80;90.50
68485;DHT22;55472;50.060;21.960;2022-11-28T15:34:36;1.80;90.80
68485;DHT22;55472;50.060;21.960;2022-11-28T15:37:14;1.80;90.90
68485;DHT22;55472;50.060;21.960;2022-11-28T15:39:45;1.80;91.00
68485;DHT22;55472;50.060;21.960;2022-11-28T15:44:57;1.80;91.00
68485;DHT22;55472;50.060;21.960;2022-11-28T15:47:25;1.70;91.20
68485;DHT22;55472;50.060;21.960;2022-11-28T15:52:36;1.60;91.60
68485;DHT22;55472;50.060;21.960;2022-11-28T15:55:13;1.70;91.40
68485;DHT22;55472;50.060;21.960;2022-11-28T15:57:40;1.60;91.40
68485;DHT22;55472;50.060;21.960;2022-11-28T16:00:12;1.60;91.60
68485;DHT22;55472;50.060;21.960;2022-11-28T16:02:43;1.60;91.70
68485;DHT22;55472;50.060;21.960;2022-11-28T16:05:17;1.60;91.70
68485;DHT22;55472;50.060;21.960;2022-11-28T16:07:49;1.60;91.50
68485;DHT22;55472;50.060;21.960;2022-11-28T16:10:29;1.60;91.70
68485;DHT22;55472;50.060;21.960;2022-11-28T16:13:01;1.60;91.90
68485;DHT22;55472;50.060;21.960;2022-11-28T16:15:29;1.60;91.80
68485;DHT22;55472;50.060;21.960;2022-11-28T16:17:55;1.60;91.90
68485;DHT22;55472;50.060;21.960;2022-11-28T16:20:27;1.60;91.90
68485;DHT22;55472;50.060;21.960;2022-11-28T16:23:00;1.60;91.70
68485;DHT22;55472;50.060;21.960;2022-11-28T16:25:31;1.50;91.80
68485;DHT22;55472;50.060;21.960;2022-11-28T16:27:57;1.50;91.60
68485;DHT22;55472;50.060;21.960;2022-11-28T16:36:18;1.50;91.80
68485;DHT22;55472;50.060;21.960;2022-11-28T16:38:46;1.50;91.30
68485;DHT22;55472;50.060;21.960;2022-11-28T16:41:16;1.50;91.60
68485;DHT22;55472;50.060;21.960;2022-11-28T16:43:49;1.50;91.60
68485;DHT22;55472;50.060;21.960;2022-11-28T16:46:21;1.50;91.40
68485;DHT22;55472;50.060;21.960;2022-11-28T16:48:53;1.50;91.20
68485;DHT22;55472;50.060;21.960;2022-11-28T16:53:48;1.50;91.10
68485;DHT22;55472;50.060;21.960;2022-11-28T16:59:18;1.50;91.50
68485;DHT22;55472;50.060;21.960;2022-11-28T17:01:47;1.50;91.70
68485;DHT22;55472;50.060;21.960;2022-11-28T17:04:25;1.50;91.70
68485;DHT22;55472;50.060;21.960;2022-11-28T17:06:58;1.50;91.80
68485;DHT22;55472;50.060;21.960;2022-11-28T17:09:30;1.50;91.80
68485;DHT22;55472;50.060;21.960;2022-11-28T17:12:03;1.50;91.70
68485;DHT22;55472;50.060;21.960;2022-11-28T17:14:30;1.50;91.90
68485;DHT22;55472;50.060;21.960;2022-11-28T17:16:57;1.40;91.90
68485;DHT22;55472;50.060;21.960;2022-11-28T17:19:23;1.40;91.90
68485;DHT22;55472;50.060;21.960;2022-11-28T17:21:55;1.40;92.00
68485;DHT22;55472;50.060;21.960;2022-11-28T17:24:24;1.40;92.10
68485;DHT22;55472;50.060;21.960;2022-11-28T17:26:53;1.40;92.20
68485;DHT22;55472;50.060;21.960;2022-11-28T17:29:20;1.40;92.20
68485;DHT22;55472;50.060;21.960;2022-11-28T17:31:47;1.40;92.00
68485;DHT22;55472;50.060;21.960;2022-11-28T17:34:19;1.30;92.10
68485;DHT22;55472;50.060;21.960;2022-11-28T17:36:46;1.30;92.10
68485;DHT22;55472;50.060;21.960;2022-11-28T17:39:13;1.20;92.10
68485;DHT22;55472;50.060;21.960;2022-11-28T17:41:40;1.20;92.10
68485;DHT22;55472;50.060;21.960;2022-11-28T17:44:15;1.20;92.00
68485;DHT22;55472;50.060;21.960;2022-11-28T17:46:46;1.10;92.20
68485;DHT22;55472;50.060;21.960;2022-11-28T17:49:13;1.00;92.50
68485;DHT22;55472;50.060;21.960;2022-11-28T17:51:39;1.00;92.40
68485;DHT22;55472;50.060;21.960;2022-11-28T17:54:05;1.00;92.50
68485;DHT22;55472;50.060;21.960;2022-11-28T17:56:31;0.90;92.60
68485;DHT22;55472;50.060;21.960;2022-11-28T17:58:58;0.90;92.70
68485;DHT22;55472;50.060;21.960;2022-11-28T18:01:27;0.80;92.80
68485;DHT22;55472;50.060;21.960;2022-11-28T18:03:55;0.80;92.80
68485;DHT22;55472;50.060;21.960;2022-11-28T18:06:21;0.80;93.00
68485;DHT22;55472;50.060;21.960;2022-11-28T18:08:49;0.70;93.20
68485;DHT22;55472;50.060;21.960;2022-11-28T18:11:16;0.70;93.30
68485;DHT22;55472;50.060;21.960;2022-11-28T18:13:43;0.60;93.50
68485;DHT22;55472;50.060;21.960;2022-11-28T18:16:14;0.60;93.30
68485;DHT22;55472;50.060;21.960;2022-11-28T18:18:42;0.60;93.30
68485;DHT22;55472;50.060;21.960;2022-11-28T18:21:08;0.50;93.70
68485;DHT22;55472;50.060;21.960;2022-11-28T18:23:39;0.50;93.80
68485;DHT22;55472;50.060;21.960;2022-11-28T18:26:13;0.50;94.00
68485;DHT22;55472;50.060;21.960;2022-11-28T18:28:40;0.40;94.10
68485;DHT22;55472;50.060;21.960;2022-11-28T18:31:21;0.40;94.10
68485;DHT22;55472;50.060;21.960;2022-11-28T18:33:49;0.40;94.00
68485;DHT22;55472;50.060;21.960;2022-11-28T18:36:23;0.30;94.20
68485;DHT22;55472;50.060;21.960;2022-11-28T18:38:56;0.30;94.20
68485;DHT22;55472;50.060;21.960;2022-11-28T18:41:22;0.20;94.30
68485;DHT22;55472;50.060;21.960;2022-11-28T18:43:56;0.20;94.60
68485;DHT22;55472;50.060;21.960;2022-11-28T18:46:23;0.20;94.50
68485;DHT22;55472;50.060;21.960;2022-11-28T18:48:51;0.10;94.30
68485;DHT22;55472;50.060;21.960;2022-11-28T18:51:22;0.10;94.20
68485;DHT22;55472;50.060;21.960;2022-11-28T18:53:51;0.10;94.30
68485;DHT22;55472;50.060;21.960;2022-11-28T18:56:18;0.00;94.30
68485;DHT22;55472;50.060;21.960;2022-11-28T18:58:47;0.00;94.20
68485;DHT22;55472;50.060;21.960;2022-11-28T19:01:17;-0.10;94.40
68485;DHT22;55472;50.060;21.960;2022-11-28T19:03:50;-0.10;94.70
68485;DHT22;55472;50.060;21.960;2022-11-28T19:06:20;-0.20;95.30
68485;DHT22;55472;50.060;21.960;2022-11-28T19:08:47;-0.20;95.40